English version
lugares datos climáticos artículos

datos de Mairena del Aljarafe, Sevilla, España
Año Mes Dia Mostrar

  Fecha       hora        Temp.ext.    Hum.ext.  Dir.Viento   Vel.Viento  Presion al NM   T.int. Prec.hoy 

   18-05-2022    12:40      29.7º(+1.5)     41%         -         0.0 km/h    1015.4 hpa     28.5º    0.0 mm
   18-05-2022    12:35      29.3º(+1.4)     41%      000 (N)      1.6 km/h    1015.4 hpa     28.5º    0.0 mm
   18-05-2022    12:30      29.3º(+1.7)     41%      000 (N)      3.2 km/h    1015.4 hpa     28.5º    0.0 mm
   18-05-2022    12:25      29.4º(+2.0)     40%      022 (N)      3.2 km/h    1015.4 hpa     28.5º    0.0 mm
   18-05-2022    12:20      29.3º(+2.2)     41%      022 (N)      1.6 km/h    1015.5 hpa     28.5º    0.0 mm
   18-05-2022    12:15      29.2º(+2.0)     41%         -         0.0 km/h    1015.5 hpa     28.4º    0.0 mm
   18-05-2022    12:10      28.9º(+2.0)     41%      022 (N)      1.6 km/h    1015.5 hpa     28.4º    0.0 mm
   18-05-2022    12:05      28.6º(+1.6)     41%         -         0.0 km/h    1015.4 hpa     28.4º    0.0 mm
   18-05-2022    12:00      28.4º(+1.7)     41%      000 (N)      3.2 km/h    1015.4 hpa     28.3º    0.0 mm
   18-05-2022    11:55      28.3º(+1.7)     42%         -         0.0 km/h    1015.4 hpa     28.3º    0.0 mm
   18-05-2022    11:50      28.2º(+1.8)     42%         -         0.0 km/h    1015.3 hpa     28.3º    0.0 mm
   18-05-2022    11:45      28.2º(+2.0)     42%      000 (N)      3.2 km/h    1015.3 hpa     28.3º    0.0 mm
   18-05-2022    11:40      28.2º(+2.0)     44%      067(NE)      1.6 km/h    1015.4 hpa     28.2º    0.0 mm
   18-05-2022    11:35      27.8º(+2.0)     44%         -         0.0 km/h    1015.4 hpa     28.2º    0.0 mm
   18-05-2022    11:30      27.6º(+1.8)     45%         -         0.0 km/h    1015.4 hpa     28.2º    0.0 mm
   18-05-2022    11:25      27.3º(+1.6)     45%      067(NE)      1.6 km/h    1015.5 hpa     28.1º    0.0 mm
   18-05-2022    11:20      27.1º(+1.8)     47%         -         0.0 km/h    1015.5 hpa     28.1º    0.0 mm
   18-05-2022    11:15      26.9º(+1.8)     47%      067(NE)      1.6 km/h    1015.5 hpa     28.1º    0.0 mm
   18-05-2022    11:10      26.9º(+1.7)     46%      067(NE)      1.6 km/h    1015.5 hpa     28.1º    0.0 mm
   18-05-2022    11:05      26.8º(+1.9)     47%      067(NE)      1.6 km/h    1015.5 hpa     28.1º    0.0 mm
   18-05-2022    11:00      26.3º(+1.5)     48%      067(NE)      1.6 km/h    1015.5 hpa     27.9º    0.0 mm
   18-05-2022    10:55      25.9º(+1.4)     49%      045(NE)      3.2 km/h    1015.5 hpa     27.9º    0.0 mm
   18-05-2022    10:50      26.1º(+1.9)     48%      045(NE)      1.6 km/h    1015.5 hpa     27.9º    0.0 mm
   18-05-2022    10:45      26.1º(+2.0)     48%      045(NE)      1.6 km/h    1015.4 hpa     27.8º    0.0 mm
   18-05-2022    10:40      25.7º(+1.4)     50%      045(NE)      1.6 km/h    1015.3 hpa     27.8º    0.0 mm
   18-05-2022    10:35      25.3º(+1.0)     52%         -         0.0 km/h    1015.4 hpa     27.8º    0.0 mm
   18-05-2022    10:30      24.8º(+0.9)     53%      090 (E)      3.2 km/h    1015.5 hpa     27.8º    0.0 mm
   18-05-2022    10:25      24.8º(+1.2)     53%      090 (E)      6.4 km/h    1015.6 hpa     27.8º    0.0 mm
   18-05-2022    10:20      24.8º(+1.5)     54%      090 (E)      1.6 km/h    1015.5 hpa     27.8º    0.0 mm
   18-05-2022    10:15      24.3º(+1.1)     55%      090 (E)      3.2 km/h    1015.5 hpa     27.8º    0.0 mm
   18-05-2022    10:10      24.3º(+1.0)     54%      090 (E)      4.8 km/h    1015.5 hpa     27.8º    0.0 mm
   18-05-2022    10:05      23.9º(+0.7)     57%      090 (E)      3.2 km/h    1015.5 hpa     27.8º    0.0 mm
   18-05-2022    10:00      23.7º(+0.7)     56%      090 (E)      6.4 km/h    1015.5 hpa     27.8º    0.0 mm
   18-05-2022    09:55      23.6º(+0.7)     57%      090 (E)      4.8 km/h    1015.5 hpa     27.8º    0.0 mm
   18-05-2022    09:50      23.4º(+0.7)     58%      090 (E)      6.4 km/h    1015.4 hpa     27.8º    0.0 mm
   18-05-2022    09:45      23.3º(+0.7)     57%      090 (E)      6.4 km/h    1015.4 hpa     27.8º    0.0 mm
   18-05-2022    09:40      23.1º(+0.5)     59%      090 (E)      8.0 km/h    1015.4 hpa     27.8º    0.0 mm
   18-05-2022    09:35      23.2º(+0.8)     59%      090 (E)      8.0 km/h    1015.3 hpa     27.8º    0.0 mm
   18-05-2022    09:30      23.3º(+1.0)     59%      090 (E)      4.8 km/h    1015.4 hpa     27.8º    0.0 mm
   18-05-2022    09:25      23.4º(+1.2)     59%      067(NE)      1.6 km/h    1015.5 hpa     27.8º    0.0 mm
   18-05-2022    09:20      23.4º(+1.5)     58%      067(NE)      3.2 km/h    1015.3 hpa     27.8º    0.0 mm
   18-05-2022    09:15      23.3º(+1.6)     59%      067(NE)      1.6 km/h    1015.3 hpa     27.8º    0.0 mm
   18-05-2022    09:10      23.1º(+1.7)     59%      067(NE)      1.6 km/h    1015.3 hpa     27.8º    0.0 mm
   18-05-2022    09:05      22.9º(+1.5)     59%      045(NE)      3.2 km/h    1015.3 hpa     27.8º    0.0 mm
   18-05-2022    09:00      22.9º(+1.5)     59%      045(NE)      3.2 km/h    1015.2 hpa     27.8º    0.0 mm
   18-05-2022    08:55      22.8º(+1.5)     59%      022 (N)      3.2 km/h    1015.2 hpa     27.8º    0.0 mm
   18-05-2022    08:50      22.7º(+1.4)     60%      022 (N)      3.2 km/h    1015.1 hpa     27.8º    0.0 mm
   18-05-2022    08:45      22.6º(+1.3)     61%      000 (N)      3.2 km/h    1015.1 hpa     27.8º    0.0 mm
   18-05-2022    08:40      22.7º(+1.5)     61%      000 (N)      3.2 km/h    1015.1 hpa     27.8º    0.0 mm
   18-05-2022    08:35      22.7º(+1.6)     62%      022 (N)      1.6 km/h    1014.9 hpa     27.7º    0.0 mm
   18-05-2022    08:30      22.4º(+1.5)     62%      022 (N)      1.6 km/h    1015.0 hpa     27.7º    0.0 mm
   18-05-2022    08:25      22.3º(+1.4)     63%      022 (N)      1.6 km/h    1015.0 hpa     27.7º    0.0 mm
   18-05-2022    08:20      22.2º(+1.4)     64%      022 (N)      1.6 km/h    1014.8 hpa     27.7º    0.0 mm
   18-05-2022    08:15      22.1º(+1.3)     64%      022 (N)      1.6 km/h    1014.9 hpa     27.7º    0.0 mm
   18-05-2022    08:10      22.0º(+1.3)     64%      000 (N)      1.6 km/h    1015.0 hpa     27.6º    0.0 mm
   18-05-2022    08:05      21.9º(+1.4)     64%      000 (N)      1.6 km/h    1014.9 hpa     27.6º    0.0 mm
   18-05-2022    08:00      21.9º(+1.6)     65%      000 (N)      1.6 km/h    1014.9 hpa     27.6º    0.0 mm
   18-05-2022    07:55      21.8º(+1.7)     65%      067(NE)      1.6 km/h    1015.0 hpa     27.6º    0.0 mm
   18-05-2022    07:50      21.8º(+1.8)     65%      067(NE)      1.6 km/h    1015.0 hpa     27.4º    0.0 mm
   18-05-2022    07:45      21.9º(+2.0)     65%      067(NE)      1.6 km/h    1015.0 hpa     27.4º    0.0 mm
   18-05-2022    07:40      21.9º(+2.1)     65%      067(NE)      1.6 km/h    1015.0 hpa     27.4º    0.0 mm
   18-05-2022    07:35      21.9º(+2.2)     65%      067(NE)      1.6 km/h    1014.9 hpa     27.4º    0.0 mm
   18-05-2022    07:30      21.9º(+2.2)     64%      067(NE)      1.6 km/h    1014.9 hpa     27.3º    0.0 mm
   18-05-2022    07:25      21.9º(+2.3)     64%      067(NE)      1.6 km/h    1014.9 hpa     27.3º    0.0 mm
   18-05-2022    07:20      21.8º(+2.2)     65%      067(NE)      4.8 km/h    1015.0 hpa     27.3º    0.0 mm
   18-05-2022    07:15      21.8º(+2.2)     65%      067(NE)      4.8 km/h    1014.8 hpa     27.3º    0.0 mm
   18-05-2022    07:10      21.7º(+2.3)     66%      067(NE)      4.8 km/h    1014.8 hpa     27.3º    0.0 mm
   18-05-2022    07:05      21.6º(+2.2)     66%      090 (E)      3.2 km/h    1014.7 hpa     27.3º    0.0 mm
   18-05-2022    07:00      21.4º(+2.1)     66%      112 (E)      1.6 km/h    1014.6 hpa     27.3º    0.0 mm
   18-05-2022    06:55      21.4º(+2.2)     66%      135(SE)      3.2 km/h    1014.6 hpa     27.3º    0.0 mm
   18-05-2022    06:50      21.3º(+2.2)     67%      135(SE)      3.2 km/h    1014.6 hpa     27.3º    0.0 mm
   18-05-2022    06:45      21.2º(+2.1)     67%      135(SE)      1.6 km/h    1014.6 hpa     27.3º    0.0 mm
   18-05-2022    06:40      21.1º(+2.0)     68%         -         0.0 km/h    1014.6 hpa     27.3º    0.0 mm
   18-05-2022    06:35      21.0º(+2.1)     67%         -         0.0 km/h    1014.6 hpa     27.3º    0.0 mm
   18-05-2022    06:30      21.1º(+2.3)     67%         -         0.0 km/h    1014.5 hpa     27.3º    0.0 mm
   18-05-2022    06:25      21.1º(+2.3)     67%         -         0.0 km/h    1014.5 hpa     27.3º    0.0 mm
   18-05-2022    06:20      21.1º(+2.3)     66%         -         0.0 km/h    1014.5 hpa     27.3º    0.0 mm
   18-05-2022    06:15      21.2º(+2.5)     66%         -         0.0 km/h    1014.6 hpa     27.3º    0.0 mm
   18-05-2022    06:10      21.2º(+2.5)     66%         -         0.0 km/h    1014.6 hpa     27.3º    0.0 mm
   18-05-2022    06:05      21.2º(+2.5)     66%         -         0.0 km/h    1014.7 hpa     27.3º    0.0 mm
   18-05-2022    06:00      21.2º(+2.5)     66%         -         0.0 km/h    1014.6 hpa     27.3º    0.0 mm
   18-05-2022    05:55      21.3º(+2.7)     66%         -         0.0 km/h    1014.6 hpa     27.3º    0.0 mm
   18-05-2022    05:50      21.3º(+2.7)     65%         -         0.0 km/h    1014.7 hpa     27.3º    0.0 mm
   18-05-2022    05:45      21.4º(+2.8)     65%         -         0.0 km/h    1014.6 hpa     27.3º    0.0 mm
   18-05-2022    05:40      21.4º(+3.0)     65%         -         0.0 km/h    1014.6 hpa     27.3º    0.0 mm
   18-05-2022    05:35      21.4º(+3.0)     65%         -         0.0 km/h    1014.5 hpa     27.3º    0.0 mm
   18-05-2022    05:30      21.5º(+3.1)     64%         -         0.0 km/h    1014.5 hpa     27.3º    0.0 mm
   18-05-2022    05:25      21.6º(+3.1)     64%         -         0.0 km/h    1014.6 hpa     27.4º    0.0 mm
   18-05-2022    05:20      21.7º(+3.2)     64%         -         0.0 km/h    1014.6 hpa     27.4º    0.0 mm
   18-05-2022    05:15      21.7º(+3.1)     65%         -         0.0 km/h    1014.6 hpa     27.4º    0.0 mm
   18-05-2022    05:10      21.6º(+3.0)     65%         -         0.0 km/h    1014.6 hpa     27.4º    0.0 mm
   18-05-2022    05:05      21.6º(+3.0)     65%         -         0.0 km/h    1014.6 hpa     27.4º    0.0 mm
   18-05-2022    05:00      21.6º(+3.0)     64%         -         0.0 km/h    1014.6 hpa     27.4º    0.0 mm
   18-05-2022    04:55      21.6º(+3.0)     64%         -         0.0 km/h    1014.6 hpa     27.4º    0.0 mm
   18-05-2022    04:50      21.6º(+2.9)     64%         -         0.0 km/h    1014.6 hpa     27.4º    0.0 mm
   18-05-2022    04:45      21.6º(+2.9)     64%         -         0.0 km/h    1014.6 hpa     27.4º    0.0 mm
   18-05-2022    04:40      21.7º(+3.0)     64%         -         0.0 km/h    1014.6 hpa     27.4º    0.0 mm
   18-05-2022    04:35      21.7º(+3.1)     63%      135(SE)      1.6 km/h    1014.6 hpa     27.4º    0.0 mm
   18-05-2022    04:30      21.7º(+3.1)     63%         -         0.0 km/h    1014.6 hpa     27.4º    0.0 mm
   18-05-2022    04:25      21.7º(+3.1)     63%      135(SE)      1.6 km/h    1014.7 hpa     27.4º    0.0 mm
   18-05-2022    04:20      21.7º(+3.1)     63%      135(SE)      1.6 km/h    1014.8 hpa     27.4º    0.0 mm
   18-05-2022    04:15      21.8º(+3.2)     62%      135(SE)      1.6 km/h    1014.7 hpa     27.4º    0.0 mm
   18-05-2022    04:10      21.8º(+3.2)     62%         -         0.0 km/h    1014.7 hpa     27.4º    0.0 mm
   18-05-2022    04:05      21.8º(+3.3)     62%         -         0.0 km/h    1014.7 hpa     27.4º    0.0 mm
   18-05-2022    04:00      21.8º(+3.4)     62%         -         0.0 km/h    1014.6 hpa     27.4º    0.0 mm
   18-05-2022    03:55      21.9º(+3.5)     62%      135(SE)      1.6 km/h    1014.5 hpa     27.4º    0.0 mm
   18-05-2022    03:50      21.9º(+3.4)     61%      135(SE)      1.6 km/h    1014.5 hpa     27.6º    0.0 mm
   18-05-2022    03:45      22.0º(+3.4)     61%      135(SE)      1.6 km/h    1014.5 hpa     27.6º    0.0 mm
   18-05-2022    03:40      22.0º(+3.4)     61%      135(SE)      1.6 km/h    1014.5 hpa     27.6º    0.0 mm
   18-05-2022    03:35      22.0º(+3.4)     61%      135(SE)      1.6 km/h    1014.4 hpa     27.6º    0.0 mm
   18-05-2022    03:30      22.1º(+3.5)     61%      135(SE)      1.6 km/h    1014.5 hpa     27.6º    0.0 mm
   18-05-2022    03:25      22.0º(+3.4)     61%      135(SE)      1.6 km/h    1014.5 hpa     27.6º    0.0 mm
   18-05-2022    03:20      22.0º(+3.3)     61%      135(SE)      3.2 km/h    1014.5 hpa     27.6º    0.0 mm
   18-05-2022    03:15      22.1º(+3.3)     61%      135(SE)      1.6 km/h    1014.6 hpa     27.6º    0.0 mm
   18-05-2022    03:10      22.1º(+3.3)     61%      135(SE)      1.6 km/h    1014.6 hpa     27.7º    0.0 mm
   18-05-2022    03:05      22.2º(+3.3)     60%      135(SE)      3.2 km/h    1014.7 hpa     27.7º    0.0 mm
   18-05-2022    03:00      22.3º(+3.3)     60%      135(SE)      3.2 km/h    1014.7 hpa     27.8º    0.0 mm
   18-05-2022    02:55      22.3º(+3.2)     60%      112 (E)      3.2 km/h    1014.8 hpa     27.8º    0.0 mm
   18-05-2022    02:50      22.4º(+3.2)     60%      112 (E)      4.8 km/h    1014.7 hpa     27.8º    0.0 mm
   18-05-2022    02:45      22.6º(+3.3)     59%      090 (E)      8.0 km/h    1014.7 hpa     27.9º    0.0 mm
   18-05-2022    02:40      22.8º(+3.4)     59%      090 (E)      8.0 km/h    1014.8 hpa     27.9º    0.0 mm
   18-05-2022    02:35      23.1º(+3.7)     58%      090 (E)      4.8 km/h    1014.8 hpa     28.1º    0.0 mm
   18-05-2022    02:30      23.6º(+4.2)     57%      090 (E)      8.0 km/h    1014.9 hpa     28.1º    0.0 mm
   18-05-2022    02:25      24.1º(+4.5)     56%      067(NE)      3.2 km/h    1014.9 hpa     28.2º    0.0 mm
   18-05-2022    02:20      24.4º(+4.6)     56%      067(NE)      3.2 km/h    1015.0 hpa     28.2º    0.0 mm
   18-05-2022    02:15      24.6º(+4.6)     55%      067(NE)      1.6 km/h    1015.0 hpa     28.2º    0.0 mm
   18-05-2022    02:10      24.7º(+4.5)     55%      067(NE)      3.2 km/h    1014.9 hpa     28.3º    0.0 mm
   18-05-2022    02:05      24.9º(+4.5)     54%      067(NE)      3.2 km/h    1015.0 hpa     28.3º    0.0 mm
   18-05-2022    02:00      25.2º(+4.5)     52%      067(NE)      4.8 km/h    1015.0 hpa     28.3º    0.0 mm
   18-05-2022    01:55      25.8º(----)     50%      067(NE)      4.8 km/h    1015.0 hpa     28.4º    0.0 mm
   18-05-2022    01:50      26.3º(----)     47%      000 (N)      1.6 km/h    1015.1 hpa     28.4º    0.0 mm
   18-05-2022    01:45      26.3º(----)     47%      000 (N)      6.4 km/h    1014.9 hpa     28.4º    0.0 mm
   18-05-2022    01:40      26.3º(----)     47%      000 (N)      6.4 km/h    1014.9 hpa     28.4º    0.0 mm
   18-05-2022    01:35      26.2º(----)     48%      000 (N)      8.0 km/h    1015.0 hpa     28.4º    0.0 mm
   18-05-2022    01:30      25.9º(----)     49%      000 (N)      4.8 km/h    1015.1 hpa     28.4º    0.0 mm
   18-05-2022    01:25      25.9º(----)     50%      000 (N)      4.8 km/h    1015.1 hpa     28.4º    0.0 mm
   18-05-2022    01:20      26.1º(----)     49%      000 (N)      4.8 km/h    1015.1 hpa     28.5º    0.0 mm
   18-05-2022    01:15      26.1º(----)     49%      337(NW)      4.8 km/h    1015.1 hpa     28.5º    0.0 mm
   18-05-2022    01:10      26.1º(----)     49%      000 (N)      6.4 km/h    1015.2 hpa     28.5º    0.0 mm
   18-05-2022    01:05      26.1º(----)     49%      337(NW)      6.4 km/h    1015.2 hpa     28.5º    0.0 mm
   18-05-2022    01:00      26.1º(----)     49%      337(NW)      6.4 km/h    1015.3 hpa     28.5º    0.0 mm
   18-05-2022    00:55      26.2º(----)     48%      337(NW)      6.4 km/h    1015.3 hpa     28.5º    0.0 mm
   18-05-2022    00:50      26.2º(----)     49%      315(NW)      6.4 km/h    1015.4 hpa     28.5º    0.0 mm
   18-05-2022    00:45      26.3º(----)     48%      315(NW)      6.4 km/h    1015.3 hpa     28.5º    0.0 mm
   18-05-2022    00:40      26.3º(----)     48%      315(NW)      6.4 km/h    1015.4 hpa     28.5º    0.0 mm
   18-05-2022    00:35      26.2º(----)     49%      315(NW)      6.4 km/h    1015.4 hpa     28.5º    0.0 mm
   18-05-2022    00:30      26.2º(----)     49%      315(NW)      6.4 km/h    1015.5 hpa     28.6º    0.0 mm
   18-05-2022    00:25      26.2º(----)     49%      337(NW)      6.4 km/h    1015.5 hpa     28.6º    0.0 mm
   18-05-2022    00:20      26.3º(----)     48%      315(NW)      6.4 km/h    1015.5 hpa     28.6º    0.0 mm
   18-05-2022    00:15      26.4º(----)     48%      315(NW)      4.8 km/h    1015.6 hpa     28.6º    0.0 mm
   18-05-2022    00:10      26.5º(----)     48%      292 (W)      4.8 km/h    1015.6 hpa     28.6º    0.0 mm
   18-05-2022    00:05      26.5º(----)     48%      315(NW)      4.8 km/h    1015.6 hpa     28.6º    0.0 mm
   18-05-2022    00:00      26.6º(----)     48%      315(NW)      4.8 km/h    1015.7 hpa     28.6º    0.0 mm